ENHV/HVG METAR and TAF weather

Enter ICAO airport designator
Station Type Date Time Source
ENHV METAR 2021/09/24 05:20 UTC NOAA

ENHV 240520Z 18014KT 140V220 9999 BKN028 08/03 Q0999


Station Type Date Time Source
ENHV Decoded METAR 2021/09/24 05:20 UTC NOAA

Honningsvag / Valan, Norway (ENHV) 71-01N 025-59E 14M
Sep 24, 2021 - 01:20 AM EDT / 2021.09.24 0520 UTC
Wind: from the S (180 degrees) at 16 MPH (14 KT) (direction variable):0
Visibility: greater than 7 mile(s):0
Sky conditions: mostly cloudy
Temperature: 46 F (8 C)
Dew Point: 37 F (3 C)
Relative Humidity: 70%
Pressure (altimeter): 29.50 in. Hg (0999 hPa)
ob: ENHV 240520Z 18014KT 140V220 9999 BKN028 08/03 Q0999
cycle: 5

Station Type Date Time Source
ENHV TAF UTC NOAA

Error!

Example: see airport list